sensor_id;sensor_type;location;lat;lon;timestamp;temperature;humidity
4749;DHT22;2388;53.582;9.962;2023-11-21T00:01:51;9.50;99.90
4749;DHT22;2388;53.582;9.962;2023-11-21T00:04:17;9.40;99.90
4749;DHT22;2388;53.582;9.962;2023-11-21T00:06:42;9.40;99.90
4749;DHT22;2388;53.582;9.962;2023-11-21T00:09:08;9.40;99.90
4749;DHT22;2388;53.582;9.962;2023-11-21T00:11:33;9.30;99.90
4749;DHT22;2388;53.582;9.962;2023-11-21T00:13:59;9.30;99.90
4749;DHT22;2388;53.582;9.962;2023-11-21T00:16:25;9.30;99.90
4749;DHT22;2388;53.582;9.962;2023-11-21T00:18:50;9.30;99.90
4749;DHT22;2388;53.582;9.962;2023-11-21T00:21:16;9.20;99.90
4749;DHT22;2388;53.582;9.962;2023-11-21T00:23:42;9.20;99.90
4749;DHT22;2388;53.582;9.962;2023-11-21T00:26:08;9.20;99.90
4749;DHT22;2388;53.582;9.962;2023-11-21T00:28:33;9.10;99.90
4749;DHT22;2388;53.582;9.962;2023-11-21T00:30:58;9.20;99.90
4749;DHT22;2388;53.582;9.962;2023-11-21T00:33:24;9.20;99.90
4749;DHT22;2388;53.582;9.962;2023-11-21T00:35:50;9.20;99.90
4749;DHT22;2388;53.582;9.962;2023-11-21T00:38:16;9.20;99.90
4749;DHT22;2388;53.582;9.962;2023-11-21T00:40:45;9.20;99.90
4749;DHT22;2388;53.582;9.962;2023-11-21T00:43:10;9.20;99.90
4749;DHT22;2388;53.582;9.962;2023-11-21T00:45:36;9.20;99.90
4749;DHT22;2388;53.582;9.962;2023-11-21T00:48:02;9.20;99.90
4749;DHT22;2388;53.582;9.962;2023-11-21T00:50:27;9.20;99.90
4749;DHT22;2388;53.582;9.962;2023-11-21T00:52:53;9.20;99.90
4749;DHT22;2388;53.582;9.962;2023-11-21T00:55:18;9.10;99.90
4749;DHT22;2388;53.582;9.962;2023-11-21T00:57:44;9.10;99.90
4749;DHT22;2388;53.582;9.962;2023-11-21T01:00:10;9.20;99.90
4749;DHT22;2388;53.582;9.962;2023-11-21T01:02:44;9.10;99.90
4749;DHT22;2388;53.582;9.962;2023-11-21T01:05:10;9.00;99.90
4749;DHT22;2388;53.582;9.962;2023-11-21T01:07:36;8.90;99.90
4749;DHT22;2388;53.582;9.962;2023-11-21T01:10:02;8.80;99.90
4749;DHT22;2388;53.582;9.962;2023-11-21T01:12:31;8.80;99.90
4749;DHT22;2388;53.582;9.962;2023-11-21T01:14:56;8.70;99.90
4749;DHT22;2388;53.582;9.962;2023-11-21T01:17:25;8.80;99.90
4749;DHT22;2388;53.582;9.962;2023-11-21T01:19:50;8.80;99.90
4749;DHT22;2388;53.582;9.962;2023-11-21T01:22:16;8.80;99.90
4749;DHT22;2388;53.582;9.962;2023-11-21T01:24:41;8.70;99.90
4749;DHT22;2388;53.582;9.962;2023-11-21T01:27:07;8.60;99.90
4749;DHT22;2388;53.582;9.962;2023-11-21T01:29:34;8.70;99.90
4749;DHT22;2388;53.582;9.962;2023-11-21T01:32:02;8.70;99.90
4749;DHT22;2388;53.582;9.962;2023-11-21T01:34:27;8.60;99.90
4749;DHT22;2388;53.582;9.962;2023-11-21T01:36:53;8.60;99.90
4749;DHT22;2388;53.582;9.962;2023-11-21T01:39:19;8.60;99.90
4749;DHT22;2388;53.582;9.962;2023-11-21T01:41:49;8.60;99.90
4749;DHT22;2388;53.582;9.962;2023-11-21T01:44:15;8.60;99.90
4749;DHT22;2388;53.582;9.962;2023-11-21T01:46:42;8.60;99.90
4749;DHT22;2388;53.582;9.962;2023-11-21T01:49:07;8.60;99.90
4749;DHT22;2388;53.582;9.962;2023-11-21T01:51:35;8.50;99.90
4749;DHT22;2388;53.582;9.962;2023-11-21T01:54:00;8.50;99.90
4749;DHT22;2388;53.582;9.962;2023-11-21T01:56:26;8.50;99.90
4749;DHT22;2388;53.582;9.962;2023-11-21T01:58:52;8.50;99.90
4749;DHT22;2388;53.582;9.962;2023-11-21T02:01:17;8.60;99.90
4749;DHT22;2388;53.582;9.962;2023-11-21T02:03:44;8.60;99.90
4749;DHT22;2388;53.582;9.962;2023-11-21T02:06:09;8.60;99.90
4749;DHT22;2388;53.582;9.962;2023-11-21T02:08:35;8.60;99.90
4749;DHT22;2388;53.582;9.962;2023-11-21T02:11:03;8.60;99.90
4749;DHT22;2388;53.582;9.962;2023-11-21T02:13:28;8.60;99.90
4749;DHT22;2388;53.582;9.962;2023-11-21T02:15:54;8.60;99.90
4749;DHT22;2388;53.582;9.962;2023-11-21T02:18:19;8.60;99.90
4749;DHT22;2388;53.582;9.962;2023-11-21T02:20:45;8.60;99.90
4749;DHT22;2388;53.582;9.962;2023-11-21T02:23:11;8.60;99.90
4749;DHT22;2388;53.582;9.962;2023-11-21T02:25:38;8.60;99.90
4749;DHT22;2388;53.582;9.962;2023-11-21T02:28:04;8.50;99.90
4749;DHT22;2388;53.582;9.962;2023-11-21T02:30:29;8.50;99.90
4749;DHT22;2388;53.582;9.962;2023-11-21T02:32:58;8.50;99.90
4749;DHT22;2388;53.582;9.962;2023-11-21T02:35:24;8.40;99.90
4749;DHT22;2388;53.582;9.962;2023-11-21T02:37:53;8.50;99.90
4749;DHT22;2388;53.582;9.962;2023-11-21T02:40:19;8.40;99.90
4749;DHT22;2388;53.582;9.962;2023-11-21T02:42:50;8.50;99.90
4749;DHT22;2388;53.582;9.962;2023-11-21T02:45:20;8.40;99.90
4749;DHT22;2388;53.582;9.962;2023-11-21T02:47:46;8.50;99.90
4749;DHT22;2388;53.582;9.962;2023-11-21T02:50:13;8.50;99.90
4749;DHT22;2388;53.582;9.962;2023-11-21T02:52:38;8.50;99.90
4749;DHT22;2388;53.582;9.962;2023-11-21T02:55:06;8.50;99.90
4749;DHT22;2388;53.582;9.962;2023-11-21T02:57:32;8.50;99.90
4749;DHT22;2388;53.582;9.962;2023-11-21T02:59:58;8.50;99.90
4749;DHT22;2388;53.582;9.962;2023-11-21T03:02:25;8.50;99.90
4749;DHT22;2388;53.582;9.962;2023-11-21T03:04:51;8.50;99.90
4749;DHT22;2388;53.582;9.962;2023-11-21T03:07:17;8.40;99.90
4749;DHT22;2388;53.582;9.962;2023-11-21T03:09:44;8.50;99.90
4749;DHT22;2388;53.582;9.962;2023-11-21T03:12:10;8.50;99.90
4749;DHT22;2388;53.582;9.962;2023-11-21T03:14:37;8.50;99.90
4749;DHT22;2388;53.582;9.962;2023-11-21T03:17:03;8.40;99.90
4749;DHT22;2388;53.582;9.962;2023-11-21T03:19:30;8.40;99.90
4749;DHT22;2388;53.582;9.962;2023-11-21T03:21:56;8.40;99.90
4749;DHT22;2388;53.582;9.962;2023-11-21T03:24:21;8.40;99.90
4749;DHT22;2388;53.582;9.962;2023-11-21T03:26:48;8.40;99.90
4749;DHT22;2388;53.582;9.962;2023-11-21T03:29:14;8.40;99.90
4749;DHT22;2388;53.582;9.962;2023-11-21T03:31:40;8.40;99.90
4749;DHT22;2388;53.582;9.962;2023-11-21T03:34:06;8.40;99.90
4749;DHT22;2388;53.582;9.962;2023-11-21T03:36:31;8.40;99.90
4749;DHT22;2388;53.582;9.962;2023-11-21T03:38:57;8.30;99.90
4749;DHT22;2388;53.582;9.962;2023-11-21T03:41:22;8.40;99.90
4749;DHT22;2388;53.582;9.962;2023-11-21T03:43:48;8.40;99.90
4749;DHT22;2388;53.582;9.962;2023-11-21T03:46:13;8.40;99.90
4749;DHT22;2388;53.582;9.962;2023-11-21T03:48:39;8.40;99.90
4749;DHT22;2388;53.582;9.962;2023-11-21T03:51:05;8.40;99.90
4749;DHT22;2388;53.582;9.962;2023-11-21T03:53:30;8.40;99.90
4749;DHT22;2388;53.582;9.962;2023-11-21T03:55:57;8.30;99.90
4749;DHT22;2388;53.582;9.962;2023-11-21T03:58:22;8.40;99.90
4749;DHT22;2388;53.582;9.962;2023-11-21T04:00:48;8.30;99.90
4749;DHT22;2388;53.582;9.962;2023-11-21T04:03:14;8.40;99.90
4749;DHT22;2388;53.582;9.962;2023-11-21T04:05:40;8.40;99.90
4749;DHT22;2388;53.582;9.962;2023-11-21T04:08:06;8.40;99.90
4749;DHT22;2388;53.582;9.962;2023-11-21T04:10:32;8.30;99.90
4749;DHT22;2388;53.582;9.962;2023-11-21T04:12:58;8.30;99.90
4749;DHT22;2388;53.582;9.962;2023-11-21T04:15:23;8.30;99.90
4749;DHT22;2388;53.582;9.962;2023-11-21T04:17:49;8.30;99.90
4749;DHT22;2388;53.582;9.962;2023-11-21T04:20:14;8.20;99.90
4749;DHT22;2388;53.582;9.962;2023-11-21T04:22:40;8.20;99.90
4749;DHT22;2388;53.582;9.962;2023-11-21T04:25:14;8.20;99.90
4749;DHT22;2388;53.582;9.962;2023-11-21T04:27:40;8.30;99.90
4749;DHT22;2388;53.582;9.962;2023-11-21T04:30:06;8.20;99.90
4749;DHT22;2388;53.582;9.962;2023-11-21T04:32:33;8.20;99.90
4749;DHT22;2388;53.582;9.962;2023-11-21T04:34:58;8.20;99.90
4749;DHT22;2388;53.582;9.962;2023-11-21T04:37:24;8.20;99.90
4749;DHT22;2388;53.582;9.962;2023-11-21T04:39:50;8.30;99.90
4749;DHT22;2388;53.582;9.962;2023-11-21T04:42:15;8.30;99.90
4749;DHT22;2388;53.582;9.962;2023-11-21T04:44:41;8.30;99.90
4749;DHT22;2388;53.582;9.962;2023-11-21T04:47:07;8.30;99.90
4749;DHT22;2388;53.582;9.962;2023-11-21T04:49:33;8.20;99.90
4749;DHT22;2388;53.582;9.962;2023-11-21T04:51:58;8.20;99.90
4749;DHT22;2388;53.582;9.962;2023-11-21T04:54:24;8.30;99.90
4749;DHT22;2388;53.582;9.962;2023-11-21T04:56:49;8.20;99.90
4749;DHT22;2388;53.582;9.962;2023-11-21T04:59:15;8.30;99.90
4749;DHT22;2388;53.582;9.962;2023-11-21T05:01:41;8.30;99.90
4749;DHT22;2388;53.582;9.962;2023-11-21T05:04:06;8.30;99.90
4749;DHT22;2388;53.582;9.962;2023-11-21T05:06:34;8.30;99.90
4749;DHT22;2388;53.582;9.962;2023-11-21T05:08:59;8.30;99.90
4749;DHT22;2388;53.582;9.962;2023-11-21T05:11:26;8.30;99.90
4749;DHT22;2388;53.582;9.962;2023-11-21T05:13:51;8.30;99.90
4749;DHT22;2388;53.582;9.962;2023-11-21T05:16:18;8.20;99.90
4749;DHT22;2388;53.582;9.962;2023-11-21T05:18:44;8.20;99.90
4749;DHT22;2388;53.582;9.962;2023-11-21T05:21:10;8.30;99.90
4749;DHT22;2388;53.582;9.962;2023-11-21T05:23:35;8.20;99.90
4749;DHT22;2388;53.582;9.962;2023-11-21T05:26:02;8.20;99.90
4749;DHT22;2388;53.582;9.962;2023-11-21T05:28:28;8.20;99.90
4749;DHT22;2388;53.582;9.962;2023-11-21T05:30:54;8.20;99.90
4749;DHT22;2388;53.582;9.962;2023-11-21T05:33:20;8.20;99.90
4749;DHT22;2388;53.582;9.962;2023-11-21T05:35:45;8.20;99.90
4749;DHT22;2388;53.582;9.962;2023-11-21T05:38:11;8.30;99.90
4749;DHT22;2388;53.582;9.962;2023-11-21T05:40:37;8.30;99.90
4749;DHT22;2388;53.582;9.962;2023-11-21T05:43:02;8.30;99.90
4749;DHT22;2388;53.582;9.962;2023-11-21T05:45:28;8.20;99.90
4749;DHT22;2388;53.582;9.962;2023-11-21T05:47:55;8.20;99.90
4749;DHT22;2388;53.582;9.962;2023-11-21T05:50:20;8.30;99.90
4749;DHT22;2388;53.582;9.962;2023-11-21T05:52:48;8.30;99.90
4749;DHT22;2388;53.582;9.962;2023-11-21T05:55:13;8.30;99.90
4749;DHT22;2388;53.582;9.962;2023-11-21T05:57:41;8.20;99.90
4749;DHT22;2388;53.582;9.962;2023-11-21T06:00:11;8.30;99.90
4749;DHT22;2388;53.582;9.962;2023-11-21T06:02:46;8.20;99.90
4749;DHT22;2388;53.582;9.962;2023-11-21T06:05:12;8.20;99.90
4749;DHT22;2388;53.582;9.962;2023-11-21T06:07:38;8.20;99.90
4749;DHT22;2388;53.582;9.962;2023-11-21T06:10:05;8.30;99.90
4749;DHT22;2388;53.582;9.962;2023-11-21T06:12:34;8.30;99.90
4749;DHT22;2388;53.582;9.962;2023-11-21T06:15:02;8.20;99.90
4749;DHT22;2388;53.582;9.962;2023-11-21T06:17:30;8.20;99.90
4749;DHT22;2388;53.582;9.962;2023-11-21T06:19:56;8.20;99.90
4749;DHT22;2388;53.582;9.962;2023-11-21T06:22:22;8.20;99.90
4749;DHT22;2388;53.582;9.962;2023-11-21T06:24:47;8.20;99.90
4749;DHT22;2388;53.582;9.962;2023-11-21T06:27:13;8.10;99.90
4749;DHT22;2388;53.582;9.962;2023-11-21T06:29:38;8.10;99.90
4749;DHT22;2388;53.582;9.962;2023-11-21T06:32:04;8.20;99.90
4749;DHT22;2388;53.582;9.962;2023-11-21T06:34:30;8.10;99.90
4749;DHT22;2388;53.582;9.962;2023-11-21T06:36:56;8.20;99.90
4749;DHT22;2388;53.582;9.962;2023-11-21T06:39:22;8.20;99.90
4749;DHT22;2388;53.582;9.962;2023-11-21T06:41:52;8.20;99.90
4749;DHT22;2388;53.582;9.962;2023-11-21T06:44:17;8.30;99.90
4749;DHT22;2388;53.582;9.962;2023-11-21T06:46:43;8.20;99.90
4749;DHT22;2388;53.582;9.962;2023-11-21T06:49:08;8.30;99.90
4749;DHT22;2388;53.582;9.962;2023-11-21T06:51:34;8.30;99.90
4749;DHT22;2388;53.582;9.962;2023-11-21T06:54:00;8.30;99.90
4749;DHT22;2388;53.582;9.962;2023-11-21T06:56:25;8.30;99.90
4749;DHT22;2388;53.582;9.962;2023-11-21T06:58:51;8.40;99.90
4749;DHT22;2388;53.582;9.962;2023-11-21T07:01:19;8.40;99.90
4749;DHT22;2388;53.582;9.962;2023-11-21T07:03:45;8.40;99.90
4749;DHT22;2388;53.582;9.962;2023-11-21T07:06:11;8.30;99.90
4749;DHT22;2388;53.582;9.962;2023-11-21T07:08:37;8.30;99.90
4749;DHT22;2388;53.582;9.962;2023-11-21T07:11:03;8.30;99.90
4749;DHT22;2388;53.582;9.962;2023-11-21T07:13:29;8.30;99.90
4749;DHT22;2388;53.582;9.962;2023-11-21T07:15:54;8.30;99.90
4749;DHT22;2388;53.582;9.962;2023-11-21T07:18:20;8.20;99.90
4749;DHT22;2388;53.582;9.962;2023-11-21T07:20:45;8.20;99.90
4749;DHT22;2388;53.582;9.962;2023-11-21T07:23:11;8.20;99.90
4749;DHT22;2388;53.582;9.962;2023-11-21T07:25:37;8.30;99.90
4749;DHT22;2388;53.582;9.962;2023-11-21T07:28:02;8.30;99.90
4749;DHT22;2388;53.582;9.962;2023-11-21T07:30:28;8.20;99.90
4749;DHT22;2388;53.582;9.962;2023-11-21T07:32:53;8.20;99.90
4749;DHT22;2388;53.582;9.962;2023-11-21T07:35:19;8.20;99.90
4749;DHT22;2388;53.582;9.962;2023-11-21T07:37:45;8.10;99.90
4749;DHT22;2388;53.582;9.962;2023-11-21T07:40:12;8.10;99.90
4749;DHT22;2388;53.582;9.962;2023-11-21T07:42:38;8.20;99.90
4749;DHT22;2388;53.582;9.962;2023-11-21T07:45:05;8.20;99.90
4749;DHT22;2388;53.582;9.962;2023-11-21T07:47:32;8.20;99.90
4749;DHT22;2388;53.582;9.962;2023-11-21T07:50:00;8.10;99.90
4749;DHT22;2388;53.582;9.962;2023-11-21T07:52:25;8.10;99.90
4749;DHT22;2388;53.582;9.962;2023-11-21T07:54:51;8.10;99.90
4749;DHT22;2388;53.582;9.962;2023-11-21T07:57:16;8.20;99.90
4749;DHT22;2388;53.582;9.962;2023-11-21T07:59:42;8.10;99.90
4749;DHT22;2388;53.582;9.962;2023-11-21T08:02:07;8.10;99.90
4749;DHT22;2388;53.582;9.962;2023-11-21T08:04:33;8.10;99.90
4749;DHT22;2388;53.582;9.962;2023-11-21T08:07:00;8.20;99.90
4749;DHT22;2388;53.582;9.962;2023-11-21T08:09:26;8.30;99.90
4749;DHT22;2388;53.582;9.962;2023-11-21T08:11:52;8.30;99.90
4749;DHT22;2388;53.582;9.962;2023-11-21T08:14:18;8.20;99.90
4749;DHT22;2388;53.582;9.962;2023-11-21T08:16:44;8.30;99.90
4749;DHT22;2388;53.582;9.962;2023-11-21T08:19:10;8.30;99.90
4749;DHT22;2388;53.582;9.962;2023-11-21T08:21:36;8.30;99.90
4749;DHT22;2388;53.582;9.962;2023-11-21T08:24:03;8.30;99.90
4749;DHT22;2388;53.582;9.962;2023-11-21T08:26:29;8.30;99.90
4749;DHT22;2388;53.582;9.962;2023-11-21T08:28:55;8.30;99.90
4749;DHT22;2388;53.582;9.962;2023-11-21T08:31:25;8.30;99.90
4749;DHT22;2388;53.582;9.962;2023-11-21T08:33:51;8.30;99.90
4749;DHT22;2388;53.582;9.962;2023-11-21T08:36:17;8.20;99.90
4749;DHT22;2388;53.582;9.962;2023-11-21T08:38:42;8.20;99.90
4749;DHT22;2388;53.582;9.962;2023-11-21T08:41:08;8.10;99.90
4749;DHT22;2388;53.582;9.962;2023-11-21T08:43:37;8.10;99.90
4749;DHT22;2388;53.582;9.962;2023-11-21T08:46:08;8.20;99.90
4749;DHT22;2388;53.582;9.962;2023-11-21T08:48:36;8.20;99.90
4749;DHT22;2388;53.582;9.962;2023-11-21T08:51:02;8.20;99.90
4749;DHT22;2388;53.582;9.962;2023-11-21T08:53:27;8.30;99.90
4749;DHT22;2388;53.582;9.962;2023-11-21T08:55:53;8.30;99.90
4749;DHT22;2388;53.582;9.962;2023-11-21T08:58:19;8.30;99.90
4749;DHT22;2388;53.582;9.962;2023-11-21T09:00:45;8.30;99.90
4749;DHT22;2388;53.582;9.962;2023-11-21T09:03:12;8.20;99.90
4749;DHT22;2388;53.582;9.962;2023-11-21T09:05:39;8.20;99.90
4749;DHT22;2388;53.582;9.962;2023-11-21T09:08:05;8.20;99.90
4749;DHT22;2388;53.582;9.962;2023-11-21T09:10:31;8.30;99.90
4749;DHT22;2388;53.582;9.962;2023-11-21T09:12:57;8.30;99.90
4749;DHT22;2388;53.582;9.962;2023-11-21T09:15:24;8.20;99.90
4749;DHT22;2388;53.582;9.962;2023-11-21T09:17:50;8.20;99.90
4749;DHT22;2388;53.582;9.962;2023-11-21T09:20:16;8.20;99.90
4749;DHT22;2388;53.582;9.962;2023-11-21T09:22:41;8.20;99.90
4749;DHT22;2388;53.582;9.962;2023-11-21T09:25:07;8.10;99.90
4749;DHT22;2388;53.582;9.962;2023-11-21T09:27:34;8.10;99.90
4749;DHT22;2388;53.582;9.962;2023-11-21T09:30:01;8.10;99.90
4749;DHT22;2388;53.582;9.962;2023-11-21T09:32:26;8.20;99.90
4749;DHT22;2388;53.582;9.962;2023-11-21T09:34:52;8.10;99.90
4749;DHT22;2388;53.582;9.962;2023-11-21T09:37:19;8.10;99.90
4749;DHT22;2388;53.582;9.962;2023-11-21T09:39:44;7.40;99.90
4749;DHT22;2388;53.582;9.962;2023-11-21T09:42:17;8.00;99.90
4749;DHT22;2388;53.582;9.962;2023-11-21T09:45:11;8.10;99.90
4749;DHT22;2388;53.582;9.962;2023-11-21T09:47:41;8.10;99.90
4749;DHT22;2388;53.582;9.962;2023-11-21T09:50:09;8.00;99.90
4749;DHT22;2388;53.582;9.962;2023-11-21T09:53:02;8.00;99.90
4749;DHT22;2388;53.582;9.962;2023-11-21T09:55:30;7.90;99.90
4749;DHT22;2388;53.582;9.962;2023-11-21T09:58:01;7.90;99.90
4749;DHT22;2388;53.582;9.962;2023-11-21T10:00:28;8.00;99.90
4749;DHT22;2388;53.582;9.962;2023-11-21T10:02:54;7.90;99.90
4749;DHT22;2388;53.582;9.962;2023-11-21T10:05:21;7.90;99.90
4749;DHT22;2388;53.582;9.962;2023-11-21T10:07:49;7.90;99.90
4749;DHT22;2388;53.582;9.962;2023-11-21T10:10:18;7.90;99.90
4749;DHT22;2388;53.582;9.962;2023-11-21T10:12:50;7.90;99.90
4749;DHT22;2388;53.582;9.962;2023-11-21T10:15:22;8.00;99.90
4749;DHT22;2388;53.582;9.962;2023-11-21T10:17:49;8.10;99.90
4749;DHT22;2388;53.582;9.962;2023-11-21T10:20:15;8.20;99.90
4749;DHT22;2388;53.582;9.962;2023-11-21T10:22:42;8.20;99.90
4749;DHT22;2388;53.582;9.962;2023-11-21T10:25:11;8.20;99.90
4749;DHT22;2388;53.582;9.962;2023-11-21T10:27:40;8.20;99.90
4749;DHT22;2388;53.582;9.962;2023-11-21T10:30:07;8.20;99.90
4749;DHT22;2388;53.582;9.962;2023-11-21T10:32:40;8.20;99.90
4749;DHT22;2388;53.582;9.962;2023-11-21T10:35:09;8.10;99.90
4749;DHT22;2388;53.582;9.962;2023-11-21T10:37:39;8.10;99.90
4749;DHT22;2388;53.582;9.962;2023-11-21T10:40:09;8.10;99.90
4749;DHT22;2388;53.582;9.962;2023-11-21T10:42:39;8.10;99.90
4749;DHT22;2388;53.582;9.962;2023-11-21T10:45:08;8.10;99.90
4749;DHT22;2388;53.582;9.962;2023-11-21T10:47:43;8.00;99.90
4749;DHT22;2388;53.582;9.962;2023-11-21T10:50:09;8.00;99.90
4749;DHT22;2388;53.582;9.962;2023-11-21T10:52:40;7.90;99.90
4749;DHT22;2388;53.582;9.962;2023-11-21T10:55:16;7.90;99.90
4749;DHT22;2388;53.582;9.962;2023-11-21T10:57:44;8.00;99.90
4749;DHT22;2388;53.582;9.962;2023-11-21T11:00:11;8.00;99.90
4749;DHT22;2388;53.582;9.962;2023-11-21T11:02:39;8.00;99.90
4749;DHT22;2388;53.582;9.962;2023-11-21T11:05:06;8.00;99.90
4749;DHT22;2388;53.582;9.962;2023-11-21T11:07:32;8.00;99.90
4749;DHT22;2388;53.582;9.962;2023-11-21T11:09:59;7.90;99.90
4749;DHT22;2388;53.582;9.962;2023-11-21T11:12:25;7.90;99.90
4749;DHT22;2388;53.582;9.962;2023-11-21T11:14:51;7.90;99.90
4749;DHT22;2388;53.582;9.962;2023-11-21T11:17:19;8.00;99.90
4749;DHT22;2388;53.582;9.962;2023-11-21T11:19:46;8.00;99.90
4749;DHT22;2388;53.582;9.962;2023-11-21T11:22:37;8.00;99.90
4749;DHT22;2388;53.582;9.962;2023-11-21T11:28:07;8.10;99.90
4749;DHT22;2388;53.582;9.962;2023-11-21T11:33:54;8.10;99.90
4749;DHT22;2388;53.582;9.962;2023-11-21T11:36:38;8.10;99.90
4749;DHT22;2388;53.582;9.962;2023-11-21T11:39:47;8.00;99.90
4749;DHT22;2388;53.582;9.962;2023-11-21T11:42:16;8.00;99.90
4749;DHT22;2388;53.582;9.962;2023-11-21T11:47:21;8.00;99.90
4749;DHT22;2388;53.582;9.962;2023-11-21T11:52:49;8.10;99.90
4749;DHT22;2388;53.582;9.962;2023-11-21T11:55:18;8.10;99.90
4749;DHT22;2388;53.582;9.962;2023-11-21T11:57:54;8.10;99.90
4749;DHT22;2388;53.582;9.962;2023-11-21T12:02:56;8.10;99.90
4749;DHT22;2388;53.582;9.962;2023-11-21T12:05:23;8.10;99.90
4749;DHT22;2388;53.582;9.962;2023-11-21T12:07:52;8.10;99.90
4749;DHT22;2388;53.582;9.962;2023-11-21T12:15:19;7.90;99.90
4749;DHT22;2388;53.582;9.962;2023-11-21T12:17:46;7.90;99.90
4749;DHT22;2388;53.582;9.962;2023-11-21T12:20:13;7.90;99.90
4749;DHT22;2388;53.582;9.962;2023-11-21T12:22:53;7.90;99.90
4749;DHT22;2388;53.582;9.962;2023-11-21T12:25:21;7.90;99.90
4749;DHT22;2388;53.582;9.962;2023-11-21T12:27:47;7.80;99.90
4749;DHT22;2388;53.582;9.962;2023-11-21T12:30:16;7.80;99.90
4749;DHT22;2388;53.582;9.962;2023-11-21T12:32:44;7.80;99.90
4749;DHT22;2388;53.582;9.962;2023-11-21T12:35:11;7.70;99.90
4749;DHT22;2388;53.582;9.962;2023-11-21T12:37:38;7.60;99.90
4749;DHT22;2388;53.582;9.962;2023-11-21T12:40:06;7.60;99.90
4749;DHT22;2388;53.582;9.962;2023-11-21T12:42:33;7.60;99.90
4749;DHT22;2388;53.582;9.962;2023-11-21T12:45:09;7.70;99.90
4749;DHT22;2388;53.582;9.962;2023-11-21T12:47:41;7.70;99.90
4749;DHT22;2388;53.582;9.962;2023-11-21T12:50:07;7.60;99.90
4749;DHT22;2388;53.582;9.962;2023-11-21T12:52:42;7.60;99.90
4749;DHT22;2388;53.582;9.962;2023-11-21T12:55:16;7.60;99.90
4749;DHT22;2388;53.582;9.962;2023-11-21T12:57:43;7.60;99.90
4749;DHT22;2388;53.582;9.962;2023-11-21T13:00:09;7.70;99.90
4749;DHT22;2388;53.582;9.962;2023-11-21T13:02:40;7.60;99.90
4749;DHT22;2388;53.582;9.962;2023-11-21T13:05:07;7.60;99.90
4749;DHT22;2388;53.582;9.962;2023-11-21T13:07:43;7.60;99.90
4749;DHT22;2388;53.582;9.962;2023-11-21T13:10:13;7.50;99.90
4749;DHT22;2388;53.582;9.962;2023-11-21T13:12:45;7.50;99.90
4749;DHT22;2388;53.582;9.962;2023-11-21T13:15:16;7.50;99.90
4749;DHT22;2388;53.582;9.962;2023-11-21T13:17:43;7.40;99.90
4749;DHT22;2388;53.582;9.962;2023-11-21T13:20:10;7.30;99.90
4749;DHT22;2388;53.582;9.962;2023-11-21T13:22:45;7.30;99.90
4749;DHT22;2388;53.582;9.962;2023-11-21T13:25:11;7.30;99.90
4749;DHT22;2388;53.582;9.962;2023-11-21T13:27:37;7.30;99.90
4749;DHT22;2388;53.582;9.962;2023-11-21T13:30:02;7.30;99.90
4749;DHT22;2388;53.582;9.962;2023-11-21T13:32:29;7.30;99.90
4749;DHT22;2388;53.582;9.962;2023-11-21T13:34:54;7.30;99.90
4749;DHT22;2388;53.582;9.962;2023-11-21T13:37:20;7.30;99.90
4749;DHT22;2388;53.582;9.962;2023-11-21T13:39:47;7.40;99.90
4749;DHT22;2388;53.582;9.962;2023-11-21T13:42:15;7.40;99.90
4749;DHT22;2388;53.582;9.962;2023-11-21T13:44:42;7.40;99.90
4749;DHT22;2388;53.582;9.962;2023-11-21T13:47:12;7.40;99.90
4749;DHT22;2388;53.582;9.962;2023-11-21T13:49:37;7.40;99.90
4749;DHT22;2388;53.582;9.962;2023-11-21T13:52:06;7.40;99.90
4749;DHT22;2388;53.582;9.962;2023-11-21T13:54:32;7.30;99.90
4749;DHT22;2388;53.582;9.962;2023-11-21T13:56:58;7.30;99.90
4749;DHT22;2388;53.582;9.962;2023-11-21T13:59:25;7.30;99.90
4749;DHT22;2388;53.582;9.962;2023-11-21T14:01:53;7.30;99.90
4749;DHT22;2388;53.582;9.962;2023-11-21T14:04:19;7.30;99.90
4749;DHT22;2388;53.582;9.962;2023-11-21T14:06:56;7.30;99.90
4749;DHT22;2388;53.582;9.962;2023-11-21T14:09:23;7.30;99.90
4749;DHT22;2388;53.582;9.962;2023-11-21T14:11:58;7.30;99.90
4749;DHT22;2388;53.582;9.962;2023-11-21T14:14:26;7.30;99.90
4749;DHT22;2388;53.582;9.962;2023-11-21T14:16:55;7.30;99.90
4749;DHT22;2388;53.582;9.962;2023-11-21T14:19:21;7.20;99.90
4749;DHT22;2388;53.582;9.962;2023-11-21T14:21:47;7.20;99.90
4749;DHT22;2388;53.582;9.962;2023-11-21T14:24:14;7.20;99.90
4749;DHT22;2388;53.582;9.962;2023-11-21T14:26:47;7.10;99.90
4749;DHT22;2388;53.582;9.962;2023-11-21T14:29:13;7.10;99.90
4749;DHT22;2388;53.582;9.962;2023-11-21T14:31:45;7.10;99.90
4749;DHT22;2388;53.582;9.962;2023-11-21T14:34:11;7.10;99.90
4749;DHT22;2388;53.582;9.962;2023-11-21T14:36:37;7.10;99.90
4749;DHT22;2388;53.582;9.962;2023-11-21T14:39:04;7.00;99.90
4749;DHT22;2388;53.582;9.962;2023-11-21T14:41:36;7.00;99.90
4749;DHT22;2388;53.582;9.962;2023-11-21T14:44:03;7.00;99.90
4749;DHT22;2388;53.582;9.962;2023-11-21T14:46:30;7.00;99.90
4749;DHT22;2388;53.582;9.962;2023-11-21T14:48:56;7.00;99.90
4749;DHT22;2388;53.582;9.962;2023-11-21T14:51:28;7.00;99.90
4749;DHT22;2388;53.582;9.962;2023-11-21T14:53:59;7.00;99.90
4749;DHT22;2388;53.582;9.962;2023-11-21T14:56:35;7.00;99.90
4749;DHT22;2388;53.582;9.962;2023-11-21T14:59:02;7.00;99.90
4749;DHT22;2388;53.582;9.962;2023-11-21T15:01:34;7.00;99.90
4749;DHT22;2388;53.582;9.962;2023-11-21T15:04:11;7.00;99.90
4749;DHT22;2388;53.582;9.962;2023-11-21T15:06:55;7.10;99.90
4749;DHT22;2388;53.582;9.962;2023-11-21T15:09:23;7.00;99.90
4749;DHT22;2388;53.582;9.962;2023-11-21T15:12:01;7.00;99.90
4749;DHT22;2388;53.582;9.962;2023-11-21T15:14:40;7.10;99.90
4749;DHT22;2388;53.582;9.962;2023-11-21T15:17:06;7.10;99.90
4749;DHT22;2388;53.582;9.962;2023-11-21T15:19:33;7.00;99.90
4749;DHT22;2388;53.582;9.962;2023-11-21T15:21:59;7.10;99.90
4749;DHT22;2388;53.582;9.962;2023-11-21T15:24:25;7.10;99.90
4749;DHT22;2388;53.582;9.962;2023-11-21T15:26:50;7.20;99.90
4749;DHT22;2388;53.582;9.962;2023-11-21T15:29:16;7.20;99.90
4749;DHT22;2388;53.582;9.962;2023-11-21T15:31:42;7.20;99.90
4749;DHT22;2388;53.582;9.962;2023-11-21T15:34:13;7.10;99.90
4749;DHT22;2388;53.582;9.962;2023-11-21T15:36:38;7.10;99.90
4749;DHT22;2388;53.582;9.962;2023-11-21T15:39:04;7.00;99.90
4749;DHT22;2388;53.582;9.962;2023-11-21T15:41:30;7.00;99.90
4749;DHT22;2388;53.582;9.962;2023-11-21T15:43:55;6.80;99.90
4749;DHT22;2388;53.582;9.962;2023-11-21T15:46:22;6.80;99.90
4749;DHT22;2388;53.582;9.962;2023-11-21T15:48:47;6.80;99.90
4749;DHT22;2388;53.582;9.962;2023-11-21T15:51:19;6.80;99.90
4749;DHT22;2388;53.582;9.962;2023-11-21T15:53:45;6.80;99.90
4749;DHT22;2388;53.582;9.962;2023-11-21T15:56:11;6.90;99.90
4749;DHT22;2388;53.582;9.962;2023-11-21T15:58:41;6.90;99.90
4749;DHT22;2388;53.582;9.962;2023-11-21T16:01:10;7.00;99.90
4749;DHT22;2388;53.582;9.962;2023-11-21T16:03:38;6.90;99.90
4749;DHT22;2388;53.582;9.962;2023-11-21T16:06:04;6.90;99.90
4749;DHT22;2388;53.582;9.962;2023-11-21T16:08:30;6.90;99.90
4749;DHT22;2388;53.582;9.962;2023-11-21T16:10:55;7.00;99.90
4749;DHT22;2388;53.582;9.962;2023-11-21T16:13:21;6.90;99.90
4749;DHT22;2388;53.582;9.962;2023-11-21T16:15:47;7.00;99.90
4749;DHT22;2388;53.582;9.962;2023-11-21T16:18:12;7.00;99.90
4749;DHT22;2388;53.582;9.962;2023-11-21T16:20:38;7.00;99.90
4749;DHT22;2388;53.582;9.962;2023-11-21T16:23:04;7.00;99.90
4749;DHT22;2388;53.582;9.962;2023-11-21T16:25:30;7.00;99.90
4749;DHT22;2388;53.582;9.962;2023-11-21T16:27:55;6.90;99.90
4749;DHT22;2388;53.582;9.962;2023-11-21T16:30:23;6.90;99.90
4749;DHT22;2388;53.582;9.962;2023-11-21T16:32:49;6.90;99.90
4749;DHT22;2388;53.582;9.962;2023-11-21T16:35:15;7.00;99.90
4749;DHT22;2388;53.582;9.962;2023-11-21T16:37:40;7.00;99.90